ORBI/SDA METAR and TAF weather

Enter ICAO airport designator
Station Type Date Time Source
ORBI METAR 2020/04/05 17:00 UTC NOAA

ORBI 051700Z 36004KT CAVOK 23/07 Q1017 NOSIG


Station Type Date Time Source
ORBI Decoded METAR 2020/04/05 17:00 UTC NOAA

Station name not available
Apr 05, 2020 - 01:00 PM EDT / 2020.04.05 1700 UTC
Wind: from the N (360 degrees) at 5 MPH (4 KT):0
Visibility: greater than 7 mile(s):0
Temperature: 73 F (23 C)
Dew Point: 44 F (7 C)
Relative Humidity: 35%
Pressure (altimeter): 30.03 in. Hg (1017 hPa)
ob: ORBI 051700Z 36004KT CAVOK 23/07 Q1017 NOSIG
cycle: 17

Station Type Date Time Source
ORBI TAF 2020/04/05 12:24 UTC NOAA

TAF TAF ORBI 051000Z 0512/0612 30012KT 7000 NSC

Example: see airport list